Time;durP1;ratioP1;P1;durP2;ratioP2;P2;SDS_P1;SDS_P2;PMS_P1;PMS_P2;Temp;Humidity;BMP_temperature;BMP_pressure;BME280_temperature;BME280_humidity;BME280_pressure;Samples;Min_cycle;Max_cycle;Signal;HPM_P1;HPM_P2
2023/09/08 00:01:38;;;;;;;0.60;0.60;;;;;;;10.60;69.70;99622.47;6243464;23;20032;-80
2023/09/08 00:04:06;;;;;;;0.60;0.60;;;;;;;10.60;69.69;99620.59;6243746;23;20020;-81
2023/09/08 00:06:36;;;;;;;0.60;0.60;;;;;;;10.58;69.82;99622.72;6217393;23;20062;-81
2023/09/08 00:09:03;;;;;;;0.60;0.60;;;;;;;10.57;69.85;99618.34;6243512;23;20027;-79
2023/09/08 00:11:30;;;;;;;0.50;0.50;;;;;;;10.55;69.90;99611.53;6243411;23;20022;-80
2023/09/08 00:13:57;;;;;;;0.60;0.60;;;;;;;10.53;69.86;99610.94;6242942;23;20103;-80
2023/09/08 00:16:25;;;;;;;0.60;0.60;;;;;;;10.53;70.08;99610.94;6243717;23;20024;-79
2023/09/08 00:18:53;;;;;;;0.60;0.60;;;;;;;10.52;70.14;99610.13;6243399;23;20111;-80
2023/09/08 00:21:20;;;;;;;0.50;0.50;;;;;;;10.53;69.98;99606.38;6243557;23;20054;-81
2023/09/08 00:23:47;;;;;;;0.57;0.57;;;;;;;10.54;70.26;99605.31;6216556;23;20115;-80
2023/09/08 00:26:14;;;;;;;0.60;0.60;;;;;;;10.52;70.20;99604.72;6243555;23;20024;-81
2023/09/08 00:28:42;;;;;;;0.50;0.50;;;;;;;10.49;70.05;99604.38;6216244;23;20050;-79
2023/09/08 00:31:13;;;;;;;0.50;0.50;;;;;;;10.47;70.54;99593.78;6216484;23;20030;-80
2023/09/08 00:33:44;;;;;;;0.60;0.60;;;;;;;10.46;70.52;99597.56;6216609;23;20028;-81
2023/09/08 00:36:11;;;;;;;0.60;0.60;;;;;;;10.46;70.61;99594.84;6217414;23;20028;-79
2023/09/08 00:38:38;;;;;;;0.60;0.60;;;;;;;10.47;70.93;99596.50;6243222;23;20389;-79
2023/09/08 00:41:05;;;;;;;0.60;0.60;;;;;;;10.43;71.09;99594.47;6243751;23;20355;-80
2023/09/08 00:43:33;;;;;;;0.60;0.60;;;;;;;10.40;71.41;99595.75;6243567;23;20094;-80
2023/09/08 00:46:02;;;;;;;0.60;0.60;;;;;;;10.37;71.93;99607.00;6150494;23;20022;-80
2023/09/08 00:48:30;;;;;;;0.57;0.57;;;;;;;10.33;72.14;99595.88;6150317;23;20102;-81
2023/09/08 00:50:57;;;;;;;0.60;0.60;;;;;;;10.32;72.39;99599.59;6125004;23;20096;-80
2023/09/08 00:53:25;;;;;;;0.60;0.60;;;;;;;10.33;72.59;99600.41;6125689;23;20497;-81
2023/09/08 00:55:54;;;;;;;0.60;0.60;;;;;;;10.36;72.85;99599.97;6125733;23;20033;-80
2023/09/08 00:58:22;;;;;;;0.60;0.60;;;;;;;10.37;73.13;99607.00;6101733;23;20025;-80
2023/09/08 01:00:51;;;;;;;0.60;0.60;;;;;;;10.37;73.54;99598.91;6149917;23;20033;-81
2023/09/08 01:03:18;;;;;;;0.60;0.60;;;;;;;10.36;73.71;99602.69;6150131;23;20505;-80
2023/09/08 01:05:46;;;;;;;0.60;0.60;;;;;;;10.34;73.68;99600.19;6149926;23;20026;-80
2023/09/08 01:08:14;;;;;;;0.60;0.60;;;;;;;10.33;74.17;99592.31;6125436;23;20456;-80
2023/09/08 01:10:42;;;;;;;0.60;0.60;;;;;;;10.31;74.26;99587.19;6149711;23;20021;-81
2023/09/08 01:13:09;;;;;;;0.50;0.50;;;;;;;10.30;74.79;99584.69;6101343;23;20098;-81
2023/09/08 01:15:37;;;;;;;0.50;0.50;;;;;;;10.24;75.15;99593.69;6149507;23;20072;-80
2023/09/08 01:18:05;;;;;;;0.60;0.60;;;;;;;10.17;75.31;99583.78;6149837;23;20108;-80
2023/09/08 01:21:06;;;;;;;0.50;0.50;;;;;;;10.11;75.89;99589.28;6149571;23;20022;-81
2023/09/08 01:23:59;;;;;;;0.60;0.60;;;;;;;10.13;76.39;99584.50;6171220;23;20062;-80
2023/09/08 01:26:40;;;;;;;0.60;0.60;;;;;;;10.07;76.60;99574.59;6216270;23;20082;-80
2023/09/08 01:29:09;;;;;;;0.60;0.60;;;;;;;9.98;77.37;99582.19;6243361;23;20142;-82
2023/09/08 01:31:37;;;;;;;0.55;0.55;;;;;;;9.90;77.85;99575.22;6216117;23;20026;-81
2023/09/08 01:34:06;;;;;;;0.60;0.60;;;;;;;9.83;78.65;99579.88;6216515;23;20020;-81
2023/09/08 01:36:35;;;;;;;0.50;0.50;;;;;;;9.82;79.54;99588.16;6242314;23;20536;-81
2023/09/08 01:39:02;;;;;;;0.60;0.60;;;;;;;9.75;79.92;99577.47;6215931;23;20035;-81
2023/09/08 01:41:32;;;;;;;0.60;0.60;;;;;;;9.71;80.21;99582.47;6215973;23;20035;-81
2023/09/08 01:44:00;;;;;;;0.70;0.70;;;;;;;9.66;80.75;99574.25;6241798;23;20024;-80
2023/09/08 01:46:27;;;;;;;0.60;0.60;;;;;;;9.61;81.04;99578.66;6216282;23;20024;-81
2023/09/08 01:48:54;;;;;;;0.60;0.60;;;;;;;9.52;81.56;99573.59;6243178;23;20022;-80
2023/09/08 01:51:24;;;;;;;0.60;0.60;;;;;;;9.47;82.18;99576.13;6242871;23;20070;-79
2023/09/08 01:53:51;;;;;;;0.50;0.50;;;;;;;9.46;82.73;99574.47;6242373;22;20020;-80
2023/09/08 01:56:19;;;;;;;0.60;0.60;;;;;;;9.48;82.83;99572.38;6215564;23;20435;-80
2023/09/08 01:58:49;;;;;;;0.60;0.60;;;;;;;9.47;82.97;99567.19;6190452;23;20024;-80
2023/09/08 02:01:16;;;;;;;0.60;0.60;;;;;;;9.48;83.36;99561.59;6215659;23;20329;-79
2023/09/08 02:03:43;;;;;;;0.60;0.60;;;;;;;9.48;83.63;99564.28;6244014;23;20363;-80
2023/09/08 02:06:12;;;;;;;0.60;0.60;;;;;;;9.46;84.08;99557.47;6244801;23;20040;-82
2023/09/08 02:08:42;;;;;;;0.60;0.60;;;;;;;9.45;83.68;99551.28;6246077;23;20024;-80
2023/09/08 02:11:10;;;;;;;0.60;0.60;;;;;;;9.43;83.59;99545.28;6220424;23;20044;-82
2023/09/08 02:13:40;;;;;;;0.65;0.65;;;;;;;9.41;83.62;99538.47;6220315;23;20375;-81
2023/09/08 02:16:15;;;;;;;0.60;0.60;;;;;;;9.38;83.72;99534.34;6193707;23;20027;-80
2023/09/08 02:18:44;;;;;;;0.60;0.60;;;;;;;9.39;83.92;99543.25;6217665;23;20024;-81
2023/09/08 02:21:11;;;;;;;0.60;0.60;;;;;;;9.40;84.08;99534.97;6244736;23;20026;-79
2023/09/08 02:23:38;;;;;;;0.50;0.50;;;;;;;9.39;84.35;99538.69;6217719;23;20016;-81
2023/09/08 02:26:07;;;;;;;0.60;0.60;;;;;;;9.37;84.71;99530.03;6218185;23;20070;-81
2023/09/08 02:28:34;;;;;;;0.60;0.60;;;;;;;9.39;84.64;99530.59;6217844;23;20024;-81
2023/09/08 02:31:02;;;;;;;0.60;0.60;;;;;;;9.39;84.28;99527.91;6217800;23;20024;-81
2023/09/08 02:33:29;;;;;;;0.57;0.57;;;;;;;9.38;84.42;99520.06;6218035;23;20028;-80
2023/09/08 02:36:05;;;;;;;0.60;0.60;;;;;;;9.40;84.68;99516.09;6218696;23;20020;-81
2023/09/08 02:38:34;;;;;;;0.50;0.50;;;;;;;9.42;84.49;99514.00;6217860;23;20086;-81
2023/09/08 02:41:05;;;;;;;0.50;0.50;;;;;;;9.43;84.40;99517.53;6219776;23;20046;-80
2023/09/08 02:43:32;;;;;;;0.70;0.70;;;;;;;9.43;84.38;99504.88;6246182;23;20382;-80
2023/09/08 02:46:02;;;;;;;0.60;0.60;;;;;;;9.45;84.25;99507.34;6218069;23;20027;-82
2023/09/08 02:48:30;;;;;;;0.60;0.60;;;;;;;9.43;84.35;99509.44;6217675;23;20020;-83
2023/09/08 02:50:58;;;;;;;0.60;0.60;;;;;;;9.42;84.20;99503.22;6244787;23;20031;-81
2023/09/08 02:53:28;;;;;;;0.60;0.60;;;;;;;9.38;84.33;99512.81;6193767;23;20523;-82
2023/09/08 02:55:56;;;;;;;0.60;0.60;;;;;;;9.39;84.09;99505.53;6244639;23;20020;-82
2023/09/08 02:58:24;;;;;;;0.60;0.60;;;;;;;9.37;84.12;99504.94;6217647;23;20048;-82
2023/09/08 03:00:52;;;;;;;0.60;0.60;;;;;;;9.39;83.89;99503.66;6244294;23;20028;-81
2023/09/08 03:03:21;;;;;;;0.60;0.60;;;;;;;9.43;83.95;99498.66;6217405;23;20051;-81
2023/09/08 03:05:54;;;;;;;0.60;0.60;;;;;;;9.46;84.27;99504.41;6217091;23;20115;-81
2023/09/08 03:08:24;;;;;;;0.60;0.60;;;;;;;9.43;84.09;99499.47;6192974;23;20028;-81
2023/09/08 03:10:56;;;;;;;0.60;0.60;;;;;;;9.47;83.94;99507.91;6217009;23;20031;-80
2023/09/08 03:13:23;;;;;;;0.60;0.60;;;;;;;9.36;84.09;99503.31;6217593;23;20032;-81
2023/09/08 03:15:51;;;;;;;0.50;0.50;;;;;;;9.37;84.69;99505.78;6216929;23;20016;-79
2023/09/08 03:18:20;;;;;;;0.60;0.60;;;;;;;9.36;84.69;99503.31;6244019;23;20019;-80
2023/09/08 03:20:49;;;;;;;0.60;0.60;;;;;;;9.35;85.07;99502.47;6216957;23;20154;-81
2023/09/08 03:23:17;;;;;;;0.60;0.60;;;;;;;9.30;85.15;99500.44;6216936;23;20027;-82
2023/09/08 03:25:44;;;;;;;0.70;0.70;;;;;;;9.32;85.50;99500.25;6216611;23;20020;-81
2023/09/08 03:28:12;;;;;;;0.70;0.70;;;;;;;9.29;85.46;99488.03;6217087;23;20077;-82
2023/09/08 03:30:39;;;;;;;0.60;0.60;;;;;;;9.28;85.60;99489.06;6243285;23;20410;-80
2023/09/08 03:33:07;;;;;;;0.60;0.60;;;;;;;9.31;85.41;99499.38;6244085;23;20116;-82
2023/09/08 03:35:37;;;;;;;0.60;0.60;;;;;;;9.33;85.15;99499.19;6216867;23;20035;-82
2023/09/08 03:38:04;;;;;;;0.70;0.70;;;;;;;9.30;85.11;99495.06;6165860;23;20448;-78
2023/09/08 03:40:32;;;;;;;0.65;0.65;;;;;;;9.32;84.89;99495.66;6192197;23;20034;-81
2023/09/08 03:43:03;;;;;;;0.70;0.70;;;;;;;9.32;84.92;99486.78;6243732;23;20024;-81
2023/09/08 03:45:31;;;;;;;0.60;0.60;;;;;;;9.35;84.92;99489.00;6190743;23;20020;-80
2023/09/08 03:47:59;;;;;;;0.70;0.70;;;;;;;9.41;84.66;99489.97;6217824;23;20016;-81
2023/09/08 03:50:27;;;;;;;0.70;0.70;;;;;;;9.43;84.57;99477.09;6218285;23;20027;-80
2023/09/08 03:52:54;;;;;;;0.70;0.70;;;;;;;9.41;84.06;99477.31;6243518;22;20471;-81
2023/09/08 03:55:24;;;;;;;0.60;0.60;;;;;;;9.42;83.85;99484.38;6243456;23;20558;-81
2023/09/08 03:58:00;;;;;;;0.60;0.60;;;;;;;9.38;83.76;99475.09;6216814;23;20024;-81
2023/09/08 04:00:28;;;;;;;0.60;0.60;;;;;;;9.41;84.08;99488.09;6217139;23;20027;-82
2023/09/08 04:02:55;;;;;;;0.60;0.60;;;;;;;9.41;84.02;99477.31;6191800;23;20047;-80
2023/09/08 04:05:22;;;;;;;0.60;0.60;;;;;;;9.40;83.89;99489.16;6242913;23;20024;-80
2023/09/08 04:07:51;;;;;;;0.60;0.60;;;;;;;9.40;83.83;99483.78;6242830;23;20108;-79
2023/09/08 04:10:20;;;;;;;0.60;0.60;;;;;;;9.40;83.79;99489.16;6243011;23;20466;-81
2023/09/08 04:12:47;;;;;;;0.60;0.60;;;;;;;9.35;83.57;99470.16;6242570;23;20031;-82
2023/09/08 04:15:17;;;;;;;0.60;0.60;;;;;;;9.36;83.61;99482.56;6216040;23;20024;-85
2023/09/08 04:17:45;;;;;;;0.60;0.60;;;;;;;9.32;83.62;99476.00;6216731;23;20084;-82
2023/09/08 04:20:14;;;;;;;0.60;0.60;;;;;;;9.41;83.57;99480.00;6216710;23;20030;-83
2023/09/08 04:22:42;;;;;;;0.60;0.60;;;;;;;9.41;83.15;99471.94;6179295;23;20032;-84
2023/09/08 04:25:12;;;;;;;0.57;0.57;;;;;;;9.43;83.16;99474.41;6154913;23;20044;-86
2023/09/08 04:27:40;;;;;;;0.70;0.70;;;;;;;9.45;82.95;99469.63;6179163;23;20091;-85
2023/09/08 04:30:07;;;;;;;0.60;0.60;;;;;;;9.47;83.18;99460.28;6154968;23;20100;-87
2023/09/08 04:32:38;;;;;;;0.60;0.60;;;;;;;9.50;82.66;99472.47;6179464;23;20017;-83
2023/09/08 04:35:05;;;;;;;0.60;0.60;;;;;;;9.54;82.21;99471.81;6179092;23;20017;-84
2023/09/08 04:37:36;;;;;;;0.50;0.50;;;;;;;9.59;81.84;99462.19;6154642;23;20372;-82
2023/09/08 04:40:36;;;;;;;0.60;0.60;;;;;;;9.58;81.36;99469.47;6154960;23;20480;-83
2023/09/08 04:43:06;;;;;;;0.60;0.60;;;;;;;9.63;81.18;99466.09;6130622;23;20028;-82
2023/09/08 04:45:36;;;;;;;0.60;0.60;;;;;;;9.66;80.47;99461.06;6179431;23;20024;-84
2023/09/08 04:48:06;;;;;;;0.60;0.60;;;;;;;9.66;80.29;99461.06;6131216;23;20441;-83
2023/09/08 04:50:36;;;;;;;0.60;0.60;;;;;;;9.68;79.81;99450.88;6179844;23;20326;-81
2023/09/08 04:53:04;;;;;;;0.60;0.60;;;;;;;9.70;79.56;99447.97;6185654;23;20031;-85
2023/09/08 04:55:31;;;;;;;0.60;0.60;;;;;;;9.76;79.44;99460.53;6211239;23;20027;-82
2023/09/08 04:58:00;;;;;;;0.70;0.70;;;;;;;9.80;79.07;99453.63;6186447;23;20023;-84
2023/09/08 05:00:27;;;;;;;0.60;0.60;;;;;;;9.90;78.40;99453.91;6211289;23;20100;-85
2023/09/08 05:02:55;;;;;;;0.70;0.70;;;;;;;10.03;77.83;99455.59;6186240;23;20684;-83
2023/09/08 05:05:23;;;;;;;0.65;0.65;;;;;;;10.08;77.15;99441.41;6212336;23;20028;-83
2023/09/08 05:07:55;;;;;;;0.70;0.70;;;;;;;10.14;77.32;99444.00;6185804;23;20024;-82
2023/09/08 05:10:24;;;;;;;0.70;0.70;;;;;;;10.18;76.59;99434.41;6185750;23;20020;-79
2023/09/08 05:12:52;;;;;;;0.70;0.70;;;;;;;10.43;75.93;99437.97;6212306;23;20055;-81
2023/09/08 05:15:21;;;;;;;0.65;0.65;;;;;;;10.84;75.26;99434.38;6185686;23;20021;-81
2023/09/08 05:17:52;;;;;;;0.60;0.60;;;;;;;11.01;73.86;99429.91;6185301;23;20497;-81
2023/09/08 05:20:21;;;;;;;0.70;0.70;;;;;;;11.14;73.11;99427.97;6161964;23;20032;-82
2023/09/08 05:22:49;;;;;;;0.60;0.60;;;;;;;11.30;72.48;99431.84;6209846;23;20448;-82
2023/09/08 05:25:19;;;;;;;0.60;0.60;;;;;;;11.49;72.20;99436.00;6186090;23;20031;-81
2023/09/08 05:27:46;;;;;;;0.60;0.60;;;;;;;11.53;71.50;99431.75;6211979;23;20091;-82
2023/09/08 05:30:15;;;;;;;0.70;0.70;;;;;;;11.39;69.86;99419.56;6210059;23;20035;-81
2023/09/08 05:32:42;;;;;;;0.70;0.70;;;;;;;11.48;69.89;99413.56;6160428;23;20312;-81
2023/09/08 05:35:10;;;;;;;0.70;0.70;;;;;;;11.58;68.71;99404.84;6210632;23;20025;-82
2023/09/08 05:37:41;;;;;;;0.70;0.70;;;;;;;11.86;68.43;99417.53;6211411;23;20355;-81
2023/09/08 05:40:08;;;;;;;0.70;0.70;;;;;;;12.12;67.30;99407.97;6217521;23;20106;-82
2023/09/08 05:42:36;;;;;;;0.70;0.70;;;;;;;11.86;66.46;99427.53;6218556;23;20020;-83
2023/09/08 05:45:03;;;;;;;0.60;0.60;;;;;;;11.42;67.58;99394.78;6213480;23;20024;-81
2023/09/08 05:47:31;;;;;;;0.65;0.65;;;;;;;11.57;67.97;99410.47;6211729;23;20115;-82
2023/09/08 05:49:59;;;;;;;0.60;0.60;;;;;;;11.67;68.05;99397.13;6211562;23;20020;-81
2023/09/08 05:52:30;;;;;;;0.60;0.60;;;;;;;11.68;67.28;99402.31;6194582;23;20028;-82
2023/09/08 05:54:57;;;;;;;0.60;0.60;;;;;;;11.77;67.56;99399.22;6211565;23;20044;-82
2023/09/08 05:57:30;;;;;;;0.60;0.60;;;;;;;11.64;67.79;99387.63;6212408;23;20035;-84
2023/09/08 05:59:58;;;;;;;0.70;0.70;;;;;;;11.53;67.18;99380.41;6212200;23;20050;-83
2023/09/08 06:02:25;;;;;;;0.68;0.68;;;;;;;11.78;67.54;99398.16;6212108;23;20024;-84
2023/09/08 06:04:53;;;;;;;0.60;0.60;;;;;;;11.76;66.94;99389.47;6212120;23;20108;-81
2023/09/08 06:07:23;;;;;;;0.75;0.75;;;;;;;11.78;66.74;99393.56;6213165;23;20044;-82
2023/09/08 06:09:51;;;;;;;0.60;0.60;;;;;;;12.01;66.47;99395.38;6213205;23;20055;-82
2023/09/08 06:12:18;;;;;;;0.70;0.70;;;;;;;12.30;65.03;99385.28;6214204;23;20027;-82
2023/09/08 06:14:45;;;;;;;0.70;0.70;;;;;;;12.41;64.69;99380.06;6224351;23;20021;-84
2023/09/08 06:17:17;;;;;;;0.70;0.70;;;;;;;12.57;64.16;99371.06;6190188;23;20024;-85
2023/09/08 06:19:45;;;;;;;0.60;0.60;;;;;;;12.50;63.86;99352.28;6212126;23;20486;-83
2023/09/08 06:22:12;;;;;;;0.60;0.60;;;;;;;12.63;63.42;99374.66;6214368;23;20800;-82
2023/09/08 06:24:40;;;;;;;0.60;0.60;;;;;;;12.62;63.24;99378.47;6187488;23;20475;-83
2023/09/08 06:27:11;;;;;;;0.60;0.60;;;;;;;12.62;63.76;99373.03;6237328;23;20490;-83
2023/09/08 06:29:43;;;;;;;0.70;0.70;;;;;;;12.66;62.30;99364.19;6214496;23;20055;-90
2023/09/08 06:32:18;;;;;;;0.70;0.70;;;;;;;12.35;62.29;99352.06;6170380;23;20408;-90
2023/09/08 06:34:49;;;;;;;0.60;0.60;;;;;;;12.23;62.76;99365.72;6192956;23;20024;-88
2023/09/08 06:37:16;;;;;;;0.70;0.70;;;;;;;12.00;62.90;99355.03;6191214;23;20032;-89
2023/09/08 06:39:44;;;;;;;0.60;0.60;;;;;;;11.87;63.28;99359.69;6213660;23;20562;-84
2023/09/08 06:42:11;;;;;;;0.60;0.60;;;;;;;12.07;63.48;99344.88;6162731;23;20052;-87
2023/09/08 06:44:48;;;;;;;0.60;0.60;;;;;;;12.20;63.12;99354.53;6168077;23;20024;-85
2023/09/08 06:47:16;;;;;;;0.60;0.60;;;;;;;12.38;62.79;99351.56;6213392;23;20087;-87
2023/09/08 06:49:43;;;;;;;0.70;0.70;;;;;;;12.67;61.68;99343.34;6188421;23;20029;-84
2023/09/08 06:52:12;;;;;;;0.70;0.70;;;;;;;12.74;60.73;99339.38;6212966;23;20024;-83
2023/09/08 06:54:39;;;;;;;0.77;0.77;;;;;;;12.95;60.31;99342.34;6186863;23;20079;-82
2023/09/08 06:57:06;;;;;;;0.73;0.73;;;;;;;13.28;59.23;99341.41;6213119;23;20021;-83
2023/09/08 06:59:39;;;;;;;0.70;0.70;;;;;;;13.33;57.77;99340.66;6213670;23;20028;-82
2023/09/08 07:02:07;;;;;;;0.70;0.70;;;;;;;13.20;57.83;99337.22;6212005;23;20027;-82
2023/09/08 07:04:35;;;;;;;0.68;0.68;;;;;;;13.29;58.27;99339.50;6213838;23;20028;-82
2023/09/08 07:07:06;;;;;;;0.70;0.70;;;;;;;13.50;57.10;99318.88;6187973;23;20025;-82
2023/09/08 07:09:37;;;;;;;0.52;0.52;;;;;;;13.06;57.67;99340.56;6212237;23;20025;-82
2023/09/08 07:12:07;;;;;;;0.70;0.70;;;;;;;12.89;58.37;99321.69;6211652;23;20040;-82
2023/09/08 07:14:34;;;;;;;0.70;0.70;;;;;;;12.88;58.49;99326.25;6186146;23;20024;-82
2023/09/08 07:17:01;;;;;;;0.70;0.70;;;;;;;12.89;58.25;99327.09;6236747;23;20029;-83
2023/09/08 07:19:31;;;;;;;0.70;0.70;;;;;;;13.19;58.34;99318.50;6212741;23;20031;-82
2023/09/08 07:22:01;;;;;;;0.70;0.70;;;;;;;13.33;57.56;99302.69;6213027;23;20024;-83
2023/09/08 07:24:29;;;;;;;0.63;0.63;;;;;;;13.63;56.66;99308.44;6213327;23;20055;-82
2023/09/08 07:26:56;;;;;;;0.80;0.80;;;;;;;13.74;55.95;99305.81;6212908;23;20059;-81
2023/09/08 07:29:24;;;;;;;0.68;0.68;;;;;;;13.74;56.32;99295.75;6211482;23;20051;-82
2023/09/08 07:31:52;;;;;;;0.60;0.60;;;;;;;13.87;55.62;99295.34;6211122;23;20538;-81
2023/09/08 07:34:20;;;;;;;0.70;0.70;;;;;;;14.03;55.22;99295.47;6211687;23;20016;-83
2023/09/08 07:37:08;;;;;;;0.60;0.60;;;;;;;13.94;54.76;99299.72;6100272;23;20370;-82
2023/09/08 07:39:35;;;;;;;0.70;0.70;;;;;;;13.82;54.77;99289.88;6043282;23;20121;-81
2023/09/08 07:42:03;;;;;;;0.70;0.70;;;;;;;13.63;55.34;99297.56;6067224;23;20026;-83
2023/09/08 07:44:35;;;;;;;0.90;0.90;;;;;;;13.73;54.95;99280.59;6067089;23;20029;-82
2023/09/08 07:47:13;;;;;;;0.60;0.60;;;;;;;13.55;55.50;99289.91;6067901;23;20054;-81
2023/09/08 07:49:45;;;;;;;0.70;0.70;;;;;;;13.69;55.47;99286.78;6090890;23;20026;-83
2023/09/08 07:52:12;;;;;;;0.60;0.60;;;;;;;13.73;55.75;99280.59;6091222;23;20026;-82
2023/09/08 07:54:42;;;;;;;0.70;0.70;;;;;;;13.90;55.19;99277.75;6091003;23;20030;-83
2023/09/08 07:57:12;;;;;;;0.70;0.70;;;;;;;14.18;53.87;99267.59;6090277;23;20033;-81
2023/09/08 07:59:43;;;;;;;0.70;0.70;;;;;;;14.29;53.26;99255.75;6066825;23;20022;-83
2023/09/08 08:02:13;;;;;;;0.70;0.70;;;;;;;14.58;52.82;99264.31;6091053;23;20029;-85
2023/09/08 08:04:40;;;;;;;0.80;0.80;;;;;;;14.49;52.75;99255.03;6090222;23;20090;-81
2023/09/08 08:07:07;;;;;;;0.60;0.60;;;;;;;14.67;52.92;99257.31;6090688;23;20022;-82
2023/09/08 08:09:34;;;;;;;0.50;0.50;;;;;;;14.55;52.35;99247.75;6090959;23;20073;-82
2023/09/08 08:12:01;;;;;;;0.60;0.60;;;;;;;14.52;52.55;99249.06;6089625;23;20030;-83
2023/09/08 08:14:29;;;;;;;0.60;0.60;;;;;;;14.82;52.00;99244.88;6066978;23;20022;-83
2023/09/08 08:16:56;;;;;;;0.90;0.90;;;;;;;15.55;51.06;99231.97;6157184;23;20095;-84
2023/09/08 08:19:23;;;;;;;0.80;0.80;;;;;;;15.88;49.05;99240.72;6212428;23;20025;-84
2023/09/08 08:21:53;;;;;;;0.82;0.82;;;;;;;16.56;47.51;99231.28;6212013;23;20452;-82
2023/09/08 08:24:20;;;;;;;0.60;0.60;;;;;;;16.07;48.17;99224.59;6213172;23;20478;-82
2023/09/08 08:26:47;;;;;;;0.50;0.50;;;;;;;15.79;48.56;99213.22;6215142;23;20071;-84
2023/09/08 08:29:14;;;;;;;0.80;0.80;;;;;;;16.15;47.78;99215.88;6214285;23;20107;-82
2023/09/08 08:31:44;;;;;;;0.80;0.80;;;;;;;16.79;46.86;99217.06;6212423;23;20028;-84
2023/09/08 08:34:12;;;;;;;0.70;0.70;;;;;;;16.92;45.59;99212.91;6211966;23;20043;-85
2023/09/08 08:36:39;;;;;;;0.88;0.88;;;;;;;17.08;45.66;99206.25;6214647;23;20021;-84
2023/09/08 08:39:07;;;;;;;0.60;0.60;;;;;;;16.69;45.81;99185.19;6242568;23;20089;-84
2023/09/08 08:41:37;;;;;;;0.80;0.80;;;;;;;16.28;47.14;99197.31;6242089;23;20108;-83
2023/09/08 08:44:08;;;;;;;0.60;0.60;;;;;;;16.52;46.76;99186.63;6216700;23;20027;-82
2023/09/08 08:46:36;;;;;;;0.50;0.50;;;;;;;16.21;47.15;99194.91;6215805;23;20020;-83
2023/09/08 08:49:04;;;;;;;0.50;0.50;;;;;;;15.78;48.23;99189.81;6215942;23;20046;-82
2023/09/08 08:51:32;;;;;;;0.65;0.65;;;;;;;15.70;48.74;99178.66;6243110;23;20058;-83
2023/09/08 08:54:04;;;;;;;0.52;0.52;;;;;;;15.87;48.44;99171.03;6190622;23;20031;-83
2023/09/08 08:56:36;;;;;;;0.50;0.50;;;;;;;15.91;48.30;99182.19;6216692;23;20024;-83
2023/09/08 08:59:03;;;;;;;0.50;0.50;;;;;;;15.35;49.66;99175.66;6241904;23;20024;-82
2023/09/08 09:01:35;;;;;;;0.50;0.50;;;;;;;14.90;50.46;99160.94;6192079;23;20034;-81
2023/09/08 09:04:05;;;;;;;0.50;0.50;;;;;;;14.69;51.49;99181.00;6215848;23;20078;-82
2023/09/08 09:06:32;;;;;;;0.50;0.50;;;;;;;14.54;51.79;99173.63;6242728;23;20051;-82
2023/09/08 09:09:00;;;;;;;0.50;0.50;;;;;;;14.55;52.09;99166.28;6242835;23;20426;-82
2023/09/08 09:11:30;;;;;;;0.50;0.50;;;;;;;14.78;52.00;99162.28;6222860;23;20047;-82
2023/09/08 09:13:58;;;;;;;0.50;0.50;;;;;;;15.07;51.43;99160.69;6252353;23;20027;-83
2023/09/08 09:16:26;;;;;;;0.43;0.43;;;;;;;14.92;51.73;99155.25;6218540;23;20106;-84
2023/09/08 09:18:58;;;;;;;0.50;0.50;;;;;;;14.77;52.45;99152.50;6246356;23;20054;-82
2023/09/08 09:21:57;;;;;;;0.50;0.50;;;;;;;14.83;52.71;99151.41;6220156;23;20034;-82
2023/09/08 09:24:43;;;;;;;0.50;0.50;;;;;;;14.76;52.82;99156.28;6122870;23;20045;-83
2023/09/08 09:27:11;;;;;;;0.50;0.50;;;;;;;14.65;53.38;99161.69;6122674;23;20029;-82
2023/09/08 09:29:46;;;;;;;0.50;0.50;;;;;;;14.70;53.45;99145.41;6122656;23;20454;-83
2023/09/08 09:32:14;;;;;;;0.60;0.60;;;;;;;14.66;54.85;99165.22;6122418;23;20036;-83
2023/09/08 09:34:56;;;;;;;0.50;0.50;;;;;;;14.64;54.50;99154.63;6121749;23;20065;-82
2023/09/08 09:37:26;;;;;;;0.50;0.50;;;;;;;14.67;54.66;99159.53;6098178;23;20112;-83
2023/09/08 09:39:54;;;;;;;0.57;0.57;;;;;;;14.74;55.02;99160.09;6074028;23;20026;-83
2023/09/08 09:42:41;;;;;;;0.60;0.60;;;;;;;15.38;53.81;99131.59;6122386;23;20440;-82
2023/09/08 09:45:11;;;;;;;0.85;0.85;;;;;;;16.30;52.04;99129.78;6106208;23;20030;-83
2023/09/08 09:47:39;;;;;;;0.60;0.60;;;;;;;16.70;51.07;99123.31;6104104;23;20022;-81
2023/09/08 09:50:07;;;;;;;0.60;0.60;;;;;;;16.87;49.67;99123.78;6122128;23;20026;-83
2023/09/08 09:52:39;;;;;;;0.60;0.60;;;;;;;16.87;49.87;99134.69;6122082;23;20032;-84
2023/09/08 09:55:07;;;;;;;0.60;0.60;;;;;;;16.63;50.62;99129.06;6121882;23;20032;-80
2023/09/08 09:57:35;;;;;;;0.60;0.60;;;;;;;16.44;51.58;99134.34;6122272;23;20022;-83
2023/09/08 10:00:05;;;;;;;0.57;0.57;;;;;;;16.71;50.59;99124.97;6116930;23;20024;-83
2023/09/08 10:02:36;;;;;;;0.50;0.50;;;;;;;16.76;50.91;99132.25;6244805;23;20135;-83
2023/09/08 10:05:12;;;;;;;0.60;0.60;;;;;;;16.72;50.78;99123.03;6244641;23;20024;-83
2023/09/08 10:07:41;;;;;;;0.60;0.60;;;;;;;16.45;51.32;99111.44;6244943;23;20423;-82
2023/09/08 10:10:09;;;;;;;0.50;0.50;;;;;;;16.58;51.30;99128.28;6217973;23;20042;-83
2023/09/08 10:12:37;;;;;;;0.60;0.60;;;;;;;16.17;52.03;99131.19;6245150;23;20070;-83
2023/09/08 10:15:05;;;;;;;0.60;0.60;;;;;;;16.20;52.37;99117.88;6218389;23;20482;-82
2023/09/08 10:17:33;;;;;;;0.50;0.50;;;;;;;16.46;51.37;99115.81;6218632;23;20024;-82
2023/09/08 10:20:03;;;;;;;0.50;0.50;;;;;;;15.98;52.85;99123.66;6218195;23;20024;-83
2023/09/08 10:22:32;;;;;;;0.40;0.40;;;;;;;15.94;52.94;99111.69;6243864;23;20099;-83
2023/09/08 10:25:03;;;;;;;0.40;0.40;;;;;;;15.69;53.10;99133.47;6192682;23;20020;-83
2023/09/08 10:27:32;;;;;;;0.40;0.40;;;;;;;15.43;54.22;99122.63;6244938;23;20027;-84
2023/09/08 10:30:06;;;;;;;0.40;0.40;;;;;;;15.22;55.11;99126.44;6244604;23;20102;-83
2023/09/08 10:32:35;;;;;;;0.40;0.40;;;;;;;14.86;55.83;99129.97;6244198;23;20024;-83
2023/09/08 10:35:06;;;;;;;0.40;0.40;;;;;;;14.56;56.55;99124.44;6218129;23;20024;-83
2023/09/08 10:37:33;;;;;;;0.40;0.40;;;;;;;14.35;57.84;99123.56;6217374;23;20028;-82
2023/09/08 10:40:21;;;;;;;0.40;0.40;;;;;;;14.33;58.73;99110.25;6244237;23;20023;-81
2023/09/08 10:43:06;;;;;;;0.50;0.50;;;;;;;14.20;58.89;99116.97;6218943;23;20084;-82
2023/09/08 10:45:36;;;;;;;0.50;0.50;;;;;;;14.26;58.79;99121.34;6244069;23;20020;-83
2023/09/08 10:48:07;;;;;;;0.50;0.50;;;;;;;14.41;58.17;99120.59;6243979;23;20027;-83
2023/09/08 10:50:40;;;;;;;0.50;0.50;;;;;;;14.76;57.70;99118.25;6244350;23;20024;-83
2023/09/08 10:53:17;;;;;;;0.50;0.50;;;;;;;14.90;56.79;99128.34;6244207;22;20490;-82
2023/09/08 10:55:48;;;;;;;0.50;0.50;;;;;;;15.09;56.52;99130.50;6245053;23;20020;-82
2023/09/08 10:58:40;;;;;;;0.40;0.40;;;;;;;15.17;55.36;99125.38;6156576;23;20099;-83
2023/09/08 11:01:13;;;;;;;0.40;0.40;;;;;;;15.01;55.79;99129.16;6244589;23;20024;-82
2023/09/08 11:03:44;;;;;;;0.50;0.50;;;;;;;14.94;56.38;99128.63;6218568;23;20020;-83
2023/09/08 11:06:17;;;;;;;0.40;0.40;;;;;;;14.96;56.56;99126.44;6245681;23;20106;-82
2023/09/08 11:08:45;;;;;;;0.40;0.40;;;;;;;14.78;55.91;99105.22;6192625;23;20020;-83
2023/09/08 11:11:19;;;;;;;0.40;0.40;;;;;;;14.50;55.85;99120.88;6244150;23;20024;-83
2023/09/08 11:13:52;;;;;;;0.40;0.40;;;;;;;14.17;55.72;99111.28;6216633;23;20356;-83
2023/09/08 11:16:25;;;;;;;0.50;0.50;;;;;;;13.99;56.55;99131.53;6245066;23;20027;-85
2023/09/08 11:18:55;;;;;;;0.50;0.50;;;;;;;14.00;58.31;99125.88;6244141;23;20024;-82
2023/09/08 11:21:22;;;;;;;0.50;0.50;;;;;;;14.08;57.43;99124.53;6243522;23;20024;-84
2023/09/08 11:23:50;;;;;;;0.50;0.50;;;;;;;14.26;58.46;99126.78;6243320;23;20047;-83
2023/09/08 11:26:18;;;;;;;0.60;0.60;;;;;;;14.70;57.11;99120.16;6217463;23;20024;-83
2023/09/08 11:28:49;;;;;;;0.70;0.70;;;;;;;15.30;55.25;99125.91;6244196;23;20027;-83
2023/09/08 11:31:19;;;;;;;0.60;0.60;;;;;;;16.65;51.70;99112.44;6242572;23;20026;-82
2023/09/08 11:33:48;;;;;;;0.70;0.70;;;;;;;16.95;50.02;99102.47;6243414;23;20020;-82
2023/09/08 11:36:19;;;;;;;0.60;0.60;;;;;;;16.69;49.60;99095.25;6243039;23;20020;-81
2023/09/08 11:38:46;;;;;;;1.00;1.00;;;;;;;17.12;48.59;99116.53;6243276;23;20111;-82
2023/09/08 11:41:28;;;;;;;0.60;0.60;;;;;;;17.97;47.35;99088.69;6243316;23;20024;-82
2023/09/08 11:43:58;;;;;;;0.40;0.40;;;;;;;17.57;47.20;99116.38;6243222;23;20024;-81
2023/09/08 11:46:25;;;;;;;0.40;0.40;;;;;;;16.68;50.38;99122.78;6244040;23;20027;-81
2023/09/08 11:48:53;;;;;;;0.50;0.50;;;;;;;16.14;50.46;99121.69;6166807;23;20028;-81